sensor_id;sensor_type;location;lat;lon;timestamp;P1;durP1;ratioP1;P2;durP2;ratioP2
9214;SDS011;4642;51.364;6.788;2023-07-28T00:02:05;3.67;;;1.93;;
9214;SDS011;4642;51.364;6.788;2023-07-28T00:04:31;3.93;;;1.73;;
9214;SDS011;4642;51.364;6.788;2023-07-28T00:06:58;4.23;;;1.70;;
9214;SDS011;4642;51.364;6.788;2023-07-28T00:09:24;5.43;;;2.17;;
9214;SDS011;4642;51.364;6.788;2023-07-28T00:11:49;3.50;;;2.00;;
9214;SDS011;4642;51.364;6.788;2023-07-28T00:14:15;4.07;;;2.20;;
9214;SDS011;4642;51.364;6.788;2023-07-28T00:16:40;5.10;;;1.97;;
9214;SDS011;4642;51.364;6.788;2023-07-28T00:19:06;4.03;;;1.97;;
9214;SDS011;4642;51.364;6.788;2023-07-28T00:21:32;4.43;;;2.27;;
9214;SDS011;4642;51.364;6.788;2023-07-28T00:23:57;3.57;;;2.30;;
9214;SDS011;4642;51.364;6.788;2023-07-28T00:26:23;3.77;;;2.53;;
9214;SDS011;4642;51.364;6.788;2023-07-28T00:28:48;3.47;;;2.07;;
9214;SDS011;4642;51.364;6.788;2023-07-28T00:31:14;6.33;;;2.63;;
9214;SDS011;4642;51.364;6.788;2023-07-28T00:33:39;4.40;;;2.97;;
9214;SDS011;4642;51.364;6.788;2023-07-28T00:36:05;3.13;;;2.33;;
9214;SDS011;4642;51.364;6.788;2023-07-28T00:38:31;3.90;;;2.30;;
9214;SDS011;4642;51.364;6.788;2023-07-28T00:40:56;4.57;;;2.27;;
9214;SDS011;4642;51.364;6.788;2023-07-28T00:43:22;4.97;;;2.47;;
9214;SDS011;4642;51.364;6.788;2023-07-28T00:45:48;5.17;;;2.20;;
9214;SDS011;4642;51.364;6.788;2023-07-28T00:48:14;4.50;;;2.30;;
9214;SDS011;4642;51.364;6.788;2023-07-28T00:50:41;2.60;;;1.93;;
9214;SDS011;4642;51.364;6.788;2023-07-28T00:53:09;4.87;;;2.50;;
9214;SDS011;4642;51.364;6.788;2023-07-28T00:55:35;5.93;;;2.20;;
9214;SDS011;4642;51.364;6.788;2023-07-28T00:58:01;3.90;;;2.10;;
9214;SDS011;4642;51.364;6.788;2023-07-28T01:00:27;4.83;;;3.03;;
9214;SDS011;4642;51.364;6.788;2023-07-28T01:02:52;6.57;;;2.53;;
9214;SDS011;4642;51.364;6.788;2023-07-28T01:05:18;4.90;;;2.40;;
9214;SDS011;4642;51.364;6.788;2023-07-28T01:07:47;6.37;;;2.70;;
9214;SDS011;4642;51.364;6.788;2023-07-28T01:10:35;3.93;;;2.70;;
9214;SDS011;4642;51.364;6.788;2023-07-28T01:13:03;6.03;;;2.90;;
9214;SDS011;4642;51.364;6.788;2023-07-28T01:15:28;3.97;;;2.50;;
9214;SDS011;4642;51.364;6.788;2023-07-28T01:17:54;3.47;;;2.47;;
9214;SDS011;4642;51.364;6.788;2023-07-28T01:20:20;6.13;;;2.73;;
9214;SDS011;4642;51.364;6.788;2023-07-28T01:25:54;2.90;;;2.30;;
9214;SDS011;4642;51.364;6.788;2023-07-28T01:28:29;2.70;;;2.13;;
9214;SDS011;4642;51.364;6.788;2023-07-28T01:30:56;7.00;;;2.67;;
9214;SDS011;4642;51.364;6.788;2023-07-28T01:33:22;3.77;;;2.50;;
9214;SDS011;4642;51.364;6.788;2023-07-28T01:35:48;3.50;;;2.33;;
9214;SDS011;4642;51.364;6.788;2023-07-28T01:38:14;2.60;;;2.27;;
9214;SDS011;4642;51.364;6.788;2023-07-28T01:40:41;6.87;;;2.20;;
9214;SDS011;4642;51.364;6.788;2023-07-28T01:43:06;9.00;;;2.47;;
9214;SDS011;4642;51.364;6.788;2023-07-28T01:45:32;6.27;;;2.63;;
9214;SDS011;4642;51.364;6.788;2023-07-28T01:47:57;2.60;;;2.30;;
9214;SDS011;4642;51.364;6.788;2023-07-28T01:50:23;6.07;;;2.30;;
9214;SDS011;4642;51.364;6.788;2023-07-28T01:52:49;4.80;;;2.80;;
9214;SDS011;4642;51.364;6.788;2023-07-28T01:55:14;4.83;;;2.50;;
9214;SDS011;4642;51.364;6.788;2023-07-28T01:57:40;3.13;;;2.43;;
9214;SDS011;4642;51.364;6.788;2023-07-28T02:00:19;3.57;;;2.93;;
9214;SDS011;4642;51.364;6.788;2023-07-28T02:02:45;5.10;;;3.43;;
9214;SDS011;4642;51.364;6.788;2023-07-28T02:05:11;4.47;;;3.00;;
9214;SDS011;4642;51.364;6.788;2023-07-28T02:07:36;5.43;;;3.10;;
9214;SDS011;4642;51.364;6.788;2023-07-28T02:10:02;5.30;;;2.90;;
9214;SDS011;4642;51.364;6.788;2023-07-28T02:12:28;4.43;;;2.93;;
9214;SDS011;4642;51.364;6.788;2023-07-28T02:14:53;4.60;;;2.83;;
9214;SDS011;4642;51.364;6.788;2023-07-28T02:17:19;4.70;;;2.70;;
9214;SDS011;4642;51.364;6.788;2023-07-28T02:19:44;3.43;;;3.13;;
9214;SDS011;4642;51.364;6.788;2023-07-28T02:22:10;9.40;;;3.30;;
9214;SDS011;4642;51.364;6.788;2023-07-28T02:24:36;6.27;;;3.00;;
9214;SDS011;4642;51.364;6.788;2023-07-28T02:27:02;3.47;;;3.17;;
9214;SDS011;4642;51.364;6.788;2023-07-28T02:29:27;5.47;;;2.63;;
9214;SDS011;4642;51.364;6.788;2023-07-28T02:31:53;4.37;;;2.97;;
9214;SDS011;4642;51.364;6.788;2023-07-28T02:34:18;7.50;;;2.90;;
9214;SDS011;4642;51.364;6.788;2023-07-28T02:36:44;4.53;;;2.80;;
9214;SDS011;4642;51.364;6.788;2023-07-28T02:39:09;3.40;;;2.87;;
9214;SDS011;4642;51.364;6.788;2023-07-28T02:41:35;7.13;;;2.77;;
9214;SDS011;4642;51.364;6.788;2023-07-28T02:44:00;4.00;;;2.67;;
9214;SDS011;4642;51.364;6.788;2023-07-28T02:46:26;5.97;;;2.50;;
9214;SDS011;4642;51.364;6.788;2023-07-28T02:48:51;7.30;;;2.90;;
9214;SDS011;4642;51.364;6.788;2023-07-28T02:51:17;7.53;;;3.27;;
9214;SDS011;4642;51.364;6.788;2023-07-28T02:53:42;2.73;;;2.53;;
9214;SDS011;4642;51.364;6.788;2023-07-28T02:56:08;2.70;;;2.50;;
9214;SDS011;4642;51.364;6.788;2023-07-28T02:58:33;3.13;;;2.30;;
9214;SDS011;4642;51.364;6.788;2023-07-28T03:00:59;2.90;;;2.60;;
9214;SDS011;4642;51.364;6.788;2023-07-28T03:03:24;2.90;;;2.17;;
9214;SDS011;4642;51.364;6.788;2023-07-28T03:05:51;3.10;;;2.77;;
9214;SDS011;4642;51.364;6.788;2023-07-28T03:08:17;2.63;;;2.43;;
9214;SDS011;4642;51.364;6.788;2023-07-28T03:10:43;3.13;;;2.50;;
9214;SDS011;4642;51.364;6.788;2023-07-28T03:13:09;4.07;;;2.00;;
9214;SDS011;4642;51.364;6.788;2023-07-28T03:15:34;3.13;;;2.23;;
9214;SDS011;4642;51.364;6.788;2023-07-28T03:18:00;2.73;;;2.50;;
9214;SDS011;4642;51.364;6.788;2023-07-28T03:20:25;4.03;;;2.53;;
9214;SDS011;4642;51.364;6.788;2023-07-28T03:22:51;4.17;;;2.40;;
9214;SDS011;4642;51.364;6.788;2023-07-28T03:25:16;3.30;;;2.40;;
9214;SDS011;4642;51.364;6.788;2023-07-28T03:27:42;3.30;;;2.80;;
9214;SDS011;4642;51.364;6.788;2023-07-28T03:30:07;3.37;;;2.70;;
9214;SDS011;4642;51.364;6.788;2023-07-28T03:32:35;2.80;;;2.30;;
9214;SDS011;4642;51.364;6.788;2023-07-28T03:35:01;4.20;;;2.47;;
9214;SDS011;4642;51.364;6.788;2023-07-28T03:37:29;5.40;;;2.50;;
9214;SDS011;4642;51.364;6.788;2023-07-28T03:39:55;6.07;;;2.67;;
9214;SDS011;4642;51.364;6.788;2023-07-28T03:42:20;3.30;;;2.60;;
9214;SDS011;4642;51.364;6.788;2023-07-28T03:44:46;2.77;;;2.57;;
9214;SDS011;4642;51.364;6.788;2023-07-28T03:47:11;3.97;;;2.73;;
9214;SDS011;4642;51.364;6.788;2023-07-28T03:49:37;7.17;;;2.67;;
9214;SDS011;4642;51.364;6.788;2023-07-28T03:52:02;4.83;;;2.60;;
9214;SDS011;4642;51.364;6.788;2023-07-28T03:54:28;3.23;;;2.93;;
9214;SDS011;4642;51.364;6.788;2023-07-28T03:56:53;4.13;;;2.73;;
9214;SDS011;4642;51.364;6.788;2023-07-28T03:59:19;2.93;;;2.50;;
9214;SDS011;4642;51.364;6.788;2023-07-28T04:01:44;3.00;;;2.63;;
9214;SDS011;4642;51.364;6.788;2023-07-28T04:04:10;2.83;;;2.57;;
9214;SDS011;4642;51.364;6.788;2023-07-28T04:06:45;3.23;;;2.53;;
9214;SDS011;4642;51.364;6.788;2023-07-28T04:09:15;4.30;;;2.37;;
9214;SDS011;4642;51.364;6.788;2023-07-28T04:11:41;4.87;;;2.50;;
9214;SDS011;4642;51.364;6.788;2023-07-28T04:14:07;4.00;;;2.50;;
9214;SDS011;4642;51.364;6.788;2023-07-28T04:16:33;2.60;;;2.40;;
9214;SDS011;4642;51.364;6.788;2023-07-28T04:18:59;2.80;;;2.50;;
9214;SDS011;4642;51.364;6.788;2023-07-28T04:21:24;3.30;;;2.53;;
9214;SDS011;4642;51.364;6.788;2023-07-28T04:23:50;2.83;;;2.33;;
9214;SDS011;4642;51.364;6.788;2023-07-28T04:26:16;2.53;;;2.30;;
9214;SDS011;4642;51.364;6.788;2023-07-28T04:28:42;4.97;;;2.53;;
9214;SDS011;4642;51.364;6.788;2023-07-28T04:31:08;2.63;;;2.43;;
9214;SDS011;4642;51.364;6.788;2023-07-28T04:33:34;3.53;;;2.37;;
9214;SDS011;4642;51.364;6.788;2023-07-28T04:36:00;2.80;;;2.50;;
9214;SDS011;4642;51.364;6.788;2023-07-28T04:38:27;2.57;;;2.03;;
9214;SDS011;4642;51.364;6.788;2023-07-28T04:40:52;1.63;;;1.53;;
9214;SDS011;4642;51.364;6.788;2023-07-28T04:43:18;7.10;;;2.20;;
9214;SDS011;4642;51.364;6.788;2023-07-28T04:45:44;2.20;;;1.90;;
9214;SDS011;4642;51.364;6.788;2023-07-28T04:48:11;2.83;;;2.23;;
9214;SDS011;4642;51.364;6.788;2023-07-28T04:50:37;1.90;;;1.70;;
9214;SDS011;4642;51.364;6.788;2023-07-28T04:53:02;1.97;;;1.73;;
9214;SDS011;4642;51.364;6.788;2023-07-28T04:55:28;2.07;;;1.57;;
9214;SDS011;4642;51.364;6.788;2023-07-28T04:57:54;2.10;;;1.83;;
9214;SDS011;4642;51.364;6.788;2023-07-28T05:00:20;3.43;;;1.90;;
9214;SDS011;4642;51.364;6.788;2023-07-28T05:02:46;2.07;;;1.87;;
9214;SDS011;4642;51.364;6.788;2023-07-28T05:05:12;2.50;;;2.00;;
9214;SDS011;4642;51.364;6.788;2023-07-28T05:07:37;3.03;;;1.83;;
9214;SDS011;4642;51.364;6.788;2023-07-28T05:10:03;2.63;;;2.20;;
9214;SDS011;4642;51.364;6.788;2023-07-28T05:12:28;4.07;;;2.10;;
9214;SDS011;4642;51.364;6.788;2023-07-28T05:14:54;3.53;;;2.00;;
9214;SDS011;4642;51.364;6.788;2023-07-28T05:17:19;4.23;;;2.40;;
9214;SDS011;4642;51.364;6.788;2023-07-28T05:19:45;3.43;;;2.10;;
9214;SDS011;4642;51.364;6.788;2023-07-28T05:22:11;2.27;;;2.07;;
9214;SDS011;4642;51.364;6.788;2023-07-28T05:24:36;8.30;;;2.20;;
9214;SDS011;4642;51.364;6.788;2023-07-28T05:27:02;2.10;;;1.90;;
9214;SDS011;4642;51.364;6.788;2023-07-28T05:29:27;3.17;;;1.90;;
9214;SDS011;4642;51.364;6.788;2023-07-28T05:31:53;2.43;;;1.90;;
9214;SDS011;4642;51.364;6.788;2023-07-28T05:34:18;3.90;;;2.10;;
9214;SDS011;4642;51.364;6.788;2023-07-28T05:36:44;4.67;;;2.17;;
9214;SDS011;4642;51.364;6.788;2023-07-28T05:39:09;4.17;;;1.80;;
9214;SDS011;4642;51.364;6.788;2023-07-28T05:41:38;2.20;;;2.00;;
9214;SDS011;4642;51.364;6.788;2023-07-28T05:44:04;2.37;;;2.17;;
9214;SDS011;4642;51.364;6.788;2023-07-28T05:46:29;4.47;;;2.47;;
9214;SDS011;4642;51.364;6.788;2023-07-28T05:48:55;2.67;;;1.93;;
9214;SDS011;4642;51.364;6.788;2023-07-28T05:51:21;7.23;;;2.07;;
9214;SDS011;4642;51.364;6.788;2023-07-28T05:53:47;3.93;;;2.40;;
9214;SDS011;4642;51.364;6.788;2023-07-28T05:56:14;4.93;;;2.30;;
9214;SDS011;4642;51.364;6.788;2023-07-28T05:58:39;2.77;;;2.40;;
9214;SDS011;4642;51.364;6.788;2023-07-28T06:01:05;4.70;;;2.97;;
9214;SDS011;4642;51.364;6.788;2023-07-28T06:03:30;5.93;;;2.80;;
9214;SDS011;4642;51.364;6.788;2023-07-28T06:05:56;7.57;;;3.10;;
9214;SDS011;4642;51.364;6.788;2023-07-28T06:08:22;4.20;;;2.83;;
9214;SDS011;4642;51.364;6.788;2023-07-28T06:10:48;4.00;;;3.13;;
9214;SDS011;4642;51.364;6.788;2023-07-28T06:13:13;5.73;;;3.53;;
9214;SDS011;4642;51.364;6.788;2023-07-28T06:15:39;5.73;;;3.50;;
9214;SDS011;4642;51.364;6.788;2023-07-28T06:18:05;5.47;;;3.27;;
9214;SDS011;4642;51.364;6.788;2023-07-28T06:20:31;10.20;;;3.57;;
9214;SDS011;4642;51.364;6.788;2023-07-28T06:22:56;6.10;;;2.93;;
9214;SDS011;4642;51.364;6.788;2023-07-28T06:25:22;5.57;;;3.37;;
9214;SDS011;4642;51.364;6.788;2023-07-28T06:27:47;5.27;;;4.27;;
9214;SDS011;4642;51.364;6.788;2023-07-28T06:30:13;6.67;;;4.23;;
9214;SDS011;4642;51.364;6.788;2023-07-28T06:32:39;5.90;;;4.40;;
9214;SDS011;4642;51.364;6.788;2023-07-28T06:35:04;7.47;;;3.67;;
9214;SDS011;4642;51.364;6.788;2023-07-28T06:37:32;8.60;;;5.27;;
9214;SDS011;4642;51.364;6.788;2023-07-28T06:39:58;11.50;;;5.57;;
9214;SDS011;4642;51.364;6.788;2023-07-28T06:42:24;10.93;;;5.93;;
9214;SDS011;4642;51.364;6.788;2023-07-28T06:44:50;8.33;;;5.97;;
9214;SDS011;4642;51.364;6.788;2023-07-28T06:47:16;13.00;;;6.00;;
9214;SDS011;4642;51.364;6.788;2023-07-28T06:49:42;7.97;;;5.47;;
9214;SDS011;4642;51.364;6.788;2023-07-28T06:52:08;10.43;;;5.70;;
9214;SDS011;4642;51.364;6.788;2023-07-28T06:54:34;10.07;;;5.40;;
9214;SDS011;4642;51.364;6.788;2023-07-28T06:57:00;8.37;;;5.27;;
9214;SDS011;4642;51.364;6.788;2023-07-28T06:59:25;6.43;;;4.63;;
9214;SDS011;4642;51.364;6.788;2023-07-28T07:01:51;9.10;;;4.97;;
9214;SDS011;4642;51.364;6.788;2023-07-28T07:04:17;12.87;;;5.43;;
9214;SDS011;4642;51.364;6.788;2023-07-28T07:06:43;10.07;;;5.70;;
9214;SDS011;4642;51.364;6.788;2023-07-28T07:09:10;9.17;;;6.40;;
9214;SDS011;4642;51.364;6.788;2023-07-28T07:11:39;9.97;;;6.03;;
9214;SDS011;4642;51.364;6.788;2023-07-28T07:14:04;11.17;;;7.20;;
9214;SDS011;4642;51.364;6.788;2023-07-28T07:16:30;10.93;;;6.87;;
9214;SDS011;4642;51.364;6.788;2023-07-28T07:18:56;10.93;;;7.03;;
9214;SDS011;4642;51.364;6.788;2023-07-28T07:21:21;9.53;;;7.03;;
9214;SDS011;4642;51.364;6.788;2023-07-28T07:23:47;7.53;;;6.30;;
9214;SDS011;4642;51.364;6.788;2023-07-28T07:26:12;8.43;;;5.63;;
9214;SDS011;4642;51.364;6.788;2023-07-28T07:28:38;7.23;;;5.73;;
9214;SDS011;4642;51.364;6.788;2023-07-28T07:31:03;7.27;;;5.70;;
9214;SDS011;4642;51.364;6.788;2023-07-28T07:33:29;7.97;;;5.40;;
9214;SDS011;4642;51.364;6.788;2023-07-28T07:35:54;9.43;;;4.83;;
9214;SDS011;4642;51.364;6.788;2023-07-28T07:38:20;5.90;;;4.43;;
9214;SDS011;4642;51.364;6.788;2023-07-28T07:40:46;5.40;;;4.33;;
9214;SDS011;4642;51.364;6.788;2023-07-28T07:43:13;4.53;;;3.83;;
9214;SDS011;4642;51.364;6.788;2023-07-28T07:45:44;4.73;;;4.10;;
9214;SDS011;4642;51.364;6.788;2023-07-28T07:48:11;5.17;;;4.17;;
9214;SDS011;4642;51.364;6.788;2023-07-28T07:50:36;5.03;;;4.17;;
9214;SDS011;4642;51.364;6.788;2023-07-28T07:53:02;6.30;;;3.97;;
9214;SDS011;4642;51.364;6.788;2023-07-28T07:55:27;4.90;;;3.63;;
9214;SDS011;4642;51.364;6.788;2023-07-28T07:57:53;6.73;;;4.33;;
9214;SDS011;4642;51.364;6.788;2023-07-28T08:00:19;6.30;;;4.27;;
9214;SDS011;4642;51.364;6.788;2023-07-28T08:02:44;5.43;;;3.63;;
9214;SDS011;4642;51.364;6.788;2023-07-28T08:05:10;7.40;;;3.57;;
9214;SDS011;4642;51.364;6.788;2023-07-28T08:07:35;5.63;;;4.00;;
9214;SDS011;4642;51.364;6.788;2023-07-28T08:10:01;3.93;;;3.40;;
9214;SDS011;4642;51.364;6.788;2023-07-28T08:12:27;3.10;;;2.73;;
9214;SDS011;4642;51.364;6.788;2023-07-28T08:14:53;3.97;;;3.10;;
9214;SDS011;4642;51.364;6.788;2023-07-28T08:17:19;4.17;;;2.47;;
9214;SDS011;4642;51.364;6.788;2023-07-28T08:19:44;3.07;;;2.77;;
9214;SDS011;4642;51.364;6.788;2023-07-28T08:22:10;2.67;;;2.30;;
9214;SDS011;4642;51.364;6.788;2023-07-28T08:24:37;2.23;;;2.03;;
9214;SDS011;4642;51.364;6.788;2023-07-28T08:27:02;2.60;;;2.40;;
9214;SDS011;4642;51.364;6.788;2023-07-28T08:29:28;2.63;;;2.10;;
9214;SDS011;4642;51.364;6.788;2023-07-28T08:31:54;2.13;;;1.93;;
9214;SDS011;4642;51.364;6.788;2023-07-28T08:34:19;6.17;;;2.10;;
9214;SDS011;4642;51.364;6.788;2023-07-28T08:36:45;1.80;;;1.70;;
9214;SDS011;4642;51.364;6.788;2023-07-28T08:39:10;2.43;;;1.97;;
9214;SDS011;4642;51.364;6.788;2023-07-28T08:41:36;2.70;;;1.70;;
9214;SDS011;4642;51.364;6.788;2023-07-28T08:44:02;2.73;;;1.87;;
9214;SDS011;4642;51.364;6.788;2023-07-28T08:46:28;3.13;;;1.97;;
9214;SDS011;4642;51.364;6.788;2023-07-28T08:48:54;2.37;;;2.10;;
9214;SDS011;4642;51.364;6.788;2023-07-28T08:51:21;2.90;;;2.03;;
9214;SDS011;4642;51.364;6.788;2023-07-28T08:53:48;3.93;;;2.30;;
9214;SDS011;4642;51.364;6.788;2023-07-28T08:56:14;3.43;;;2.17;;
9214;SDS011;4642;51.364;6.788;2023-07-28T08:58:40;3.10;;;2.23;;
9214;SDS011;4642;51.364;6.788;2023-07-28T09:01:05;2.70;;;2.17;;
9214;SDS011;4642;51.364;6.788;2023-07-28T09:03:31;6.20;;;2.40;;
9214;SDS011;4642;51.364;6.788;2023-07-28T09:05:59;4.63;;;2.67;;
9214;SDS011;4642;51.364;6.788;2023-07-28T09:08:26;3.13;;;2.80;;
9214;SDS011;4642;51.364;6.788;2023-07-28T09:10:52;3.10;;;2.80;;
9214;SDS011;4642;51.364;6.788;2023-07-28T09:13:19;4.67;;;3.20;;
9214;SDS011;4642;51.364;6.788;2023-07-28T09:15:45;5.13;;;3.03;;
9214;SDS011;4642;51.364;6.788;2023-07-28T09:18:12;4.10;;;3.00;;
9214;SDS011;4642;51.364;6.788;2023-07-28T09:20:40;6.07;;;3.70;;
9214;SDS011;4642;51.364;6.788;2023-07-28T09:23:06;4.13;;;3.63;;
9214;SDS011;4642;51.364;6.788;2023-07-28T09:25:33;5.97;;;3.63;;
9214;SDS011;4642;51.364;6.788;2023-07-28T09:28:00;4.30;;;3.77;;
9214;SDS011;4642;51.364;6.788;2023-07-28T09:30:26;5.53;;;3.80;;
9214;SDS011;4642;51.364;6.788;2023-07-28T09:32:53;6.73;;;4.27;;
9214;SDS011;4642;51.364;6.788;2023-07-28T09:35:20;5.13;;;4.63;;
9214;SDS011;4642;51.364;6.788;2023-07-28T09:37:47;10.33;;;5.10;;
9214;SDS011;4642;51.364;6.788;2023-07-28T09:40:20;5.87;;;5.03;;
9214;SDS011;4642;51.364;6.788;2023-07-28T09:42:47;8.83;;;4.60;;
9214;SDS011;4642;51.364;6.788;2023-07-28T09:45:15;5.90;;;4.93;;
9214;SDS011;4642;51.364;6.788;2023-07-28T09:47:43;5.77;;;5.17;;
9214;SDS011;4642;51.364;6.788;2023-07-28T09:50:10;5.60;;;4.97;;
9214;SDS011;4642;51.364;6.788;2023-07-28T09:52:42;5.47;;;4.23;;
9214;SDS011;4642;51.364;6.788;2023-07-28T09:55:10;4.57;;;4.07;;
9214;SDS011;4642;51.364;6.788;2023-07-28T09:57:39;4.90;;;4.43;;
9214;SDS011;4642;51.364;6.788;2023-07-28T10:00:10;4.53;;;4.17;;
9214;SDS011;4642;51.364;6.788;2023-07-28T10:02:38;4.80;;;4.37;;
9214;SDS011;4642;51.364;6.788;2023-07-28T10:05:07;4.83;;;4.33;;
9214;SDS011;4642;51.364;6.788;2023-07-28T10:07:35;3.83;;;3.53;;
9214;SDS011;4642;51.364;6.788;2023-07-28T10:10:05;3.50;;;3.20;;
9214;SDS011;4642;51.364;6.788;2023-07-28T10:15:17;4.67;;;3.03;;
9214;SDS011;4642;51.364;6.788;2023-07-28T10:17:49;6.03;;;3.10;;
9214;SDS011;4642;51.364;6.788;2023-07-28T10:20:30;5.57;;;2.93;;
9214;SDS011;4642;51.364;6.788;2023-07-28T10:23:03;3.67;;;2.60;;
9214;SDS011;4642;51.364;6.788;2023-07-28T10:25:37;2.87;;;2.60;;
9214;SDS011;4642;51.364;6.788;2023-07-28T10:28:04;3.00;;;2.70;;
9214;SDS011;4642;51.364;6.788;2023-07-28T10:30:35;3.47;;;2.40;;
9214;SDS011;4642;51.364;6.788;2023-07-28T10:33:02;4.13;;;2.37;;
9214;SDS011;4642;51.364;6.788;2023-07-28T10:35:28;3.30;;;2.40;;
9214;SDS011;4642;51.364;6.788;2023-07-28T10:37:56;3.93;;;2.40;;
9214;SDS011;4642;51.364;6.788;2023-07-28T10:40:22;4.13;;;1.90;;
9214;SDS011;4642;51.364;6.788;2023-07-28T10:42:49;3.77;;;2.30;;
9214;SDS011;4642;51.364;6.788;2023-07-28T10:45:15;3.33;;;2.10;;
9214;SDS011;4642;51.364;6.788;2023-07-28T10:47:41;1.87;;;1.77;;
9214;SDS011;4642;51.364;6.788;2023-07-28T10:50:11;2.27;;;1.80;;
9214;SDS011;4642;51.364;6.788;2023-07-28T10:52:44;2.53;;;1.47;;
9214;SDS011;4642;51.364;6.788;2023-07-28T10:55:14;1.73;;;1.40;;
9214;SDS011;4642;51.364;6.788;2023-07-28T10:57:43;4.87;;;1.57;;
9214;SDS011;4642;51.364;6.788;2023-07-28T11:00:10;4.10;;;1.30;;
9214;SDS011;4642;51.364;6.788;2023-07-28T11:02:44;2.77;;;1.40;;
9214;SDS011;4642;51.364;6.788;2023-07-28T11:05:12;1.47;;;0.80;;
9214;SDS011;4642;51.364;6.788;2023-07-28T11:07:43;2.13;;;0.90;;
9214;SDS011;4642;51.364;6.788;2023-07-28T11:10:13;3.97;;;0.90;;
9214;SDS011;4642;51.364;6.788;2023-07-28T11:12:40;0.80;;;0.80;;
9214;SDS011;4642;51.364;6.788;2023-07-28T11:15:11;1.47;;;0.93;;
9214;SDS011;4642;51.364;6.788;2023-07-28T11:17:38;1.37;;;0.90;;
9214;SDS011;4642;51.364;6.788;2023-07-28T11:20:14;3.60;;;1.10;;
9214;SDS011;4642;51.364;6.788;2023-07-28T11:22:44;2.03;;;1.00;;
9214;SDS011;4642;51.364;6.788;2023-07-28T11:25:11;4.40;;;1.00;;
9214;SDS011;4642;51.364;6.788;2023-07-28T11:27:38;1.90;;;0.97;;
9214;SDS011;4642;51.364;6.788;2023-07-28T11:30:06;2.57;;;1.13;;
9214;SDS011;4642;51.364;6.788;2023-07-28T11:32:34;6.43;;;1.10;;
9214;SDS011;4642;51.364;6.788;2023-07-28T11:35:07;2.40;;;0.80;;
9214;SDS011;4642;51.364;6.788;2023-07-28T11:37:34;1.30;;;0.60;;
9214;SDS011;4642;51.364;6.788;2023-07-28T11:40:01;2.10;;;0.77;;
9214;SDS011;4642;51.364;6.788;2023-07-28T11:42:31;0.90;;;0.53;;
9214;SDS011;4642;51.364;6.788;2023-07-28T11:45:04;1.37;;;0.60;;
9214;SDS011;4642;51.364;6.788;2023-07-28T11:47:31;1.53;;;0.70;;
9214;SDS011;4642;51.364;6.788;2023-07-28T11:49:57;1.47;;;0.80;;
9214;SDS011;4642;51.364;6.788;2023-07-28T11:52:32;3.37;;;0.80;;
9214;SDS011;4642;51.364;6.788;2023-07-28T11:54:59;2.57;;;0.97;;
9214;SDS011;4642;51.364;6.788;2023-07-28T11:57:26;3.70;;;0.93;;
9214;SDS011;4642;51.364;6.788;2023-07-28T11:59:53;1.53;;;0.90;;
9214;SDS011;4642;51.364;6.788;2023-07-28T12:02:25;2.13;;;1.00;;
9214;SDS011;4642;51.364;6.788;2023-07-28T12:04:56;1.40;;;0.90;;
9214;SDS011;4642;51.364;6.788;2023-07-28T12:07:32;1.40;;;0.90;;
9214;SDS011;4642;51.364;6.788;2023-07-28T12:10:02;1.80;;;1.20;;
9214;SDS011;4642;51.364;6.788;2023-07-28T12:12:31;1.00;;;0.90;;
9214;SDS011;4642;51.364;6.788;2023-07-28T12:15:17;1.43;;;0.90;;
9214;SDS011;4642;51.364;6.788;2023-07-28T12:18:00;2.50;;;0.77;;
9214;SDS011;4642;51.364;6.788;2023-07-28T12:20:40;1.60;;;0.50;;
9214;SDS011;4642;51.364;6.788;2023-07-28T12:23:15;0.43;;;0.40;;
9214;SDS011;4642;51.364;6.788;2023-07-28T12:25:43;0.40;;;0.40;;
9214;SDS011;4642;51.364;6.788;2023-07-28T12:28:09;0.93;;;0.53;;
9214;SDS011;4642;51.364;6.788;2023-07-28T12:30:35;0.60;;;0.60;;
9214;SDS011;4642;51.364;6.788;2023-07-28T12:33:02;0.50;;;0.50;;
9214;SDS011;4642;51.364;6.788;2023-07-28T12:35:29;1.47;;;0.60;;
9214;SDS011;4642;51.364;6.788;2023-07-28T12:38:03;1.67;;;0.50;;
9214;SDS011;4642;51.364;6.788;2023-07-28T12:40:29;2.10;;;0.60;;
9214;SDS011;4642;51.364;6.788;2023-07-28T12:42:56;3.23;;;0.60;;
9214;SDS011;4642;51.364;6.788;2023-07-28T12:45:23;0.77;;;0.60;;
9214;SDS011;4642;51.364;6.788;2023-07-28T12:47:51;2.10;;;0.60;;
9214;SDS011;4642;51.364;6.788;2023-07-28T12:50:18;2.17;;;0.67;;
9214;SDS011;4642;51.364;6.788;2023-07-28T12:52:45;1.03;;;0.67;;
9214;SDS011;4642;51.364;6.788;2023-07-28T12:55:11;0.90;;;0.53;;
9214;SDS011;4642;51.364;6.788;2023-07-28T12:57:37;2.23;;;1.10;;
9214;SDS011;4642;51.364;6.788;2023-07-28T13:00:02;0.80;;;0.73;;
9214;SDS011;4642;51.364;6.788;2023-07-28T13:02:37;1.73;;;0.90;;
9214;SDS011;4642;51.364;6.788;2023-07-28T13:05:09;0.70;;;0.70;;
9214;SDS011;4642;51.364;6.788;2023-07-28T13:07:35;1.43;;;0.93;;
9214;SDS011;4642;51.364;6.788;2023-07-28T13:10:05;1.67;;;0.80;;
9214;SDS011;4642;51.364;6.788;2023-07-28T13:12:33;2.07;;;0.93;;
9214;SDS011;4642;51.364;6.788;2023-07-28T13:14:59;1.33;;;0.67;;
9214;SDS011;4642;51.364;6.788;2023-07-28T13:17:24;1.83;;;0.60;;
9214;SDS011;4642;51.364;6.788;2023-07-28T13:19:50;0.90;;;0.80;;
9214;SDS011;4642;51.364;6.788;2023-07-28T13:22:15;2.90;;;0.90;;
9214;SDS011;4642;51.364;6.788;2023-07-28T13:24:41;3.80;;;0.87;;
9214;SDS011;4642;51.364;6.788;2023-07-28T13:27:08;1.73;;;0.83;;
9214;SDS011;4642;51.364;6.788;2023-07-28T13:29:34;1.20;;;0.70;;
9214;SDS011;4642;51.364;6.788;2023-07-28T13:32:00;1.30;;;0.80;;
9214;SDS011;4642;51.364;6.788;2023-07-28T13:34:26;0.90;;;0.70;;
9214;SDS011;4642;51.364;6.788;2023-07-28T13:36:52;0.83;;;0.67;;
9214;SDS011;4642;51.364;6.788;2023-07-28T13:39:20;1.33;;;0.60;;
9214;SDS011;4642;51.364;6.788;2023-07-28T13:41:47;2.10;;;1.20;;
9214;SDS011;4642;51.364;6.788;2023-07-28T13:44:12;3.47;;;0.87;;
9214;SDS011;4642;51.364;6.788;2023-07-28T13:46:38;0.87;;;0.70;;
9214;SDS011;4642;51.364;6.788;2023-07-28T13:49:03;2.53;;;0.80;;
9214;SDS011;4642;51.364;6.788;2023-07-28T13:51:29;0.70;;;0.60;;
9214;SDS011;4642;51.364;6.788;2023-07-28T13:53:54;1.90;;;1.20;;
9214;SDS011;4642;51.364;6.788;2023-07-28T13:56:20;0.87;;;0.87;;
9214;SDS011;4642;51.364;6.788;2023-07-28T13:58:45;2.40;;;0.73;;
9214;SDS011;4642;51.364;6.788;2023-07-28T14:01:11;1.10;;;0.90;;
9214;SDS011;4642;51.364;6.788;2023-07-28T14:03:36;2.47;;;0.90;;
9214;SDS011;4642;51.364;6.788;2023-07-28T14:06:02;3.33;;;0.80;;
9214;SDS011;4642;51.364;6.788;2023-07-28T14:08:30;0.90;;;0.83;;
9214;SDS011;4642;51.364;6.788;2023-07-28T14:10:56;2.67;;;1.13;;
9214;SDS011;4642;51.364;6.788;2023-07-28T14:13:21;2.87;;;0.80;;
9214;SDS011;4642;51.364;6.788;2023-07-28T14:15:47;1.63;;;0.80;;
9214;SDS011;4642;51.364;6.788;2023-07-28T14:18:13;1.63;;;0.80;;
9214;SDS011;4642;51.364;6.788;2023-07-28T14:20:39;1.53;;;0.70;;
9214;SDS011;4642;51.364;6.788;2023-07-28T14:23:19;1.23;;;1.07;;
9214;SDS011;4642;51.364;6.788;2023-07-28T14:25:49;0.87;;;0.70;;
9214;SDS011;4642;51.364;6.788;2023-07-28T14:28:15;1.80;;;0.60;;
9214;SDS011;4642;51.364;6.788;2023-07-28T14:30:41;2.30;;;0.50;;
9214;SDS011;4642;51.364;6.788;2023-07-28T14:33:11;2.93;;;0.80;;
9214;SDS011;4642;51.364;6.788;2023-07-28T14:35:40;1.13;;;0.70;;
9214;SDS011;4642;51.364;6.788;2023-07-28T14:38:06;0.60;;;0.60;;
9214;SDS011;4642;51.364;6.788;2023-07-28T14:40:32;2.87;;;0.70;;
9214;SDS011;4642;51.364;6.788;2023-07-28T14:42:57;0.67;;;0.60;;
9214;SDS011;4642;51.364;6.788;2023-07-28T14:45:23;1.30;;;0.80;;
9214;SDS011;4642;51.364;6.788;2023-07-28T14:47:48;1.43;;;0.80;;
9214;SDS011;4642;51.364;6.788;2023-07-28T14:50:14;0.80;;;0.70;;
9214;SDS011;4642;51.364;6.788;2023-07-28T14:52:39;0.80;;;0.80;;
9214;SDS011;4642;51.364;6.788;2023-07-28T14:55:05;5.07;;;1.00;;
9214;SDS011;4642;51.364;6.788;2023-07-28T14:57:31;0.87;;;0.83;;
9214;SDS011;4642;51.364;6.788;2023-07-28T14:59:56;3.13;;;0.80;;
9214;SDS011;4642;51.364;6.788;2023-07-28T15:02:22;2.60;;;0.90;;
9214;SDS011;4642;51.364;6.788;2023-07-28T15:04:47;1.20;;;1.00;;
9214;SDS011;4642;51.364;6.788;2023-07-28T15:07:13;1.43;;;0.90;;
9214;SDS011;4642;51.364;6.788;2023-07-28T15:09:40;1.57;;;0.90;;
9214;SDS011;4642;51.364;6.788;2023-07-28T15:12:05;1.00;;;0.90;;
9214;SDS011;4642;51.364;6.788;2023-07-28T15:14:31;1.00;;;0.80;;
9214;SDS011;4642;51.364;6.788;2023-07-28T15:16:57;1.10;;;0.80;;
9214;SDS011;4642;51.364;6.788;2023-07-28T15:19:22;0.93;;;0.60;;